createdAt,value
2022-12-25T00:01:54.352Z,100360.45
2022-12-25T00:03:59.000Z,100372.73
2022-12-25T00:06:04.055Z,100374.8
2022-12-25T00:08:08.446Z,100373.81
2022-12-25T00:10:12.863Z,100386.69
2022-12-25T00:12:17.296Z,100383.34
2022-12-25T00:14:21.727Z,100389.06
2022-12-25T00:16:26.453Z,100392.09
2022-12-25T00:18:31.332Z,100394.45
2022-12-25T00:20:35.774Z,100398.17
2022-12-25T00:22:40.166Z,100395.69
2022-12-25T00:24:44.569Z,100398.28
2022-12-25T00:26:49.008Z,100406.06
2022-12-25T00:28:53.467Z,100400.89
2022-12-25T00:30:58.055Z,100397.25
2022-12-25T00:33:02.749Z,100397.98
2022-12-25T00:35:07.190Z,100398.09
2022-12-25T00:37:11.706Z,100399.67
2022-12-25T00:39:16.228Z,100407.2
2022-12-25T00:41:20.633Z,100416.22
2022-12-25T00:43:25.148Z,100418.8
2022-12-25T00:45:29.753Z,100415.09
2022-12-25T00:47:34.341Z,100415.39
2022-12-25T00:49:38.726Z,100409.4
2022-12-25T00:51:43.160Z,100412.05
2022-12-25T00:53:47.741Z,100416.47
2022-12-25T00:55:52.155Z,100414.83
2022-12-25T00:57:56.661Z,100417.16
2022-12-25T01:00:01.222Z,100414.77
2022-12-25T01:02:05.961Z,100415.8
2022-12-25T01:04:10.626Z,100421.69
2022-12-25T01:06:15.161Z,100425.62
2022-12-25T01:08:19.543Z,100431.38
2022-12-25T01:10:23.926Z,100434.13
2022-12-25T01:12:28.427Z,100431.97
2022-12-25T01:14:32.811Z,100439.58
2022-12-25T01:16:37.473Z,100436.3
2022-12-25T01:18:42.158Z,100438.08
2022-12-25T01:20:46.560Z,100446.7
2022-12-25T01:22:51.117Z,100453.42
2022-12-25T01:24:55.493Z,100452.48
2022-12-25T01:26:59.900Z,100451.31
2022-12-25T01:29:04.273Z,100454.18
2022-12-25T01:31:08.904Z,100455.92
2022-12-25T01:33:13.557Z,100464.22
2022-12-25T01:35:18.076Z,100461.34
2022-12-25T01:37:22.469Z,100457.02
2022-12-25T01:39:26.895Z,100454.42
2022-12-25T01:41:31.396Z,100462.11
2022-12-25T01:43:35.912Z,100454.91
2022-12-25T01:45:40.469Z,100456.97
2022-12-25T01:47:44.935Z,100447.02
2022-12-25T01:49:49.357Z,100448.52
2022-12-25T01:51:53.739Z,100446.75
2022-12-25T01:53:58.150Z,100451.53
2022-12-25T01:56:02.605Z,100446.07
2022-12-25T01:58:07.040Z,100442.45
2022-12-25T02:00:11.536Z,100451.56
2022-12-25T02:02:16.135Z,100453
2022-12-25T02:04:20.760Z,100454.53
2022-12-25T02:06:25.152Z,100459.47
2022-12-25T02:08:29.614Z,100459.49
2022-12-25T02:10:34.068Z,100453.66
2022-12-25T02:12:38.531Z,100457.19
2022-12-25T02:14:42.927Z,100456.58
2022-12-25T02:16:59.112Z,100459.99
2022-12-25T02:19:03.725Z,100459.27
2022-12-25T02:21:08.146Z,100457.48
2022-12-25T02:23:12.879Z,100463.56
2022-12-25T02:25:17.355Z,100460.47
2022-12-25T02:27:21.821Z,100457.16
2022-12-25T02:29:26.278Z,100458.03
2022-12-25T02:31:30.922Z,100460.89
2022-12-25T02:33:35.389Z,100465.16
2022-12-25T02:35:40.140Z,100464.33
2022-12-25T02:37:44.545Z,100469.69
2022-12-25T02:39:48.934Z,100469.61
2022-12-25T02:41:53.330Z,100474.45
2022-12-25T02:43:57.817Z,100473.45
2022-12-25T02:46:02.578Z,100473.72
2022-12-25T02:48:07.281Z,100480.83
2022-12-25T02:50:11.677Z,100487.44
2022-12-25T02:52:16.045Z,100490.9
2022-12-25T02:54:20.456Z,100490.78
2022-12-25T02:56:25.129Z,100490.65
2022-12-25T02:58:29.504Z,100491.05
2022-12-25T03:00:33.936Z,100491.48
2022-12-25T03:02:38.301Z,100489.57
2022-12-25T03:04:42.677Z,100489.47
2022-12-25T03:06:47.101Z,100482.5
2022-12-25T03:08:51.492Z,100484.75
2022-12-25T03:10:56.066Z,100481.38
2022-12-25T03:13:00.471Z,100485.48
2022-12-25T03:15:04.822Z,100480
2022-12-25T03:18:31.791Z,100489.55
2022-12-25T03:20:36.261Z,100496.33
2022-12-25T03:22:40.639Z,100500.42
2022-12-25T03:24:45.026Z,100505.71
2022-12-25T03:26:49.535Z,100503.96
2022-12-25T03:28:54.050Z,100513.17
2022-12-25T03:30:58.577Z,100520.15
2022-12-25T03:33:43.658Z,100523.41
2022-12-25T03:35:49.547Z,100526.42
2022-12-25T03:37:53.997Z,100525.5
2022-12-25T03:39:58.398Z,100529.77
2022-12-25T03:42:02.777Z,100531.64
2022-12-25T03:44:07.227Z,100532.3
2022-12-25T03:46:11.778Z,100533.13
2022-12-25T03:48:16.242Z,100530.73
2022-12-25T03:50:20.656Z,100530.75
2022-12-25T03:52:25.060Z,100525.73
2022-12-25T03:54:29.461Z,100529.36
2022-12-25T03:56:33.931Z,100535.35
2022-12-25T03:58:38.348Z,100541
2022-12-25T04:00:42.738Z,100539.62
2022-12-25T04:02:47.486Z,100540.53
2022-12-25T04:04:52.144Z,100544.3
2022-12-25T04:06:56.633Z,100546.53
2022-12-25T04:09:01.048Z,100541.77
2022-12-25T04:11:05.399Z,100542.08
2022-12-25T04:13:09.815Z,100543.59
2022-12-25T04:15:14.208Z,100542.91
2022-12-25T04:17:18.582Z,100540.84
2022-12-25T04:19:22.974Z,100537.56
2022-12-25T04:21:27.355Z,100537.71
2022-12-25T04:23:31.826Z,100530.84
2022-12-25T04:25:36.209Z,100539.55
2022-12-25T04:27:40.599Z,100537.27
2022-12-25T04:29:45.013Z,100539.95
2022-12-25T04:31:49.410Z,100537
2022-12-25T04:33:53.804Z,100534.23
2022-12-25T04:35:58.218Z,100536.27
2022-12-25T04:38:02.589Z,100534.03
2022-12-25T04:40:06.993Z,100533.6
2022-12-25T04:42:11.367Z,100537.97
2022-12-25T04:44:15.776Z,100543.41
2022-12-25T04:46:20.311Z,100540.39
2022-12-25T04:48:24.849Z,100548.51
2022-12-25T04:50:29.250Z,100550.01
2022-12-25T04:52:33.650Z,100553.07
2022-12-25T04:54:38.050Z,100554.73
2022-12-25T04:56:46.769Z,100558.09
2022-12-25T04:58:51.181Z,100554.49
2022-12-25T05:00:55.565Z,100555.41
2022-12-25T05:03:00.684Z,100547.2
2022-12-25T05:05:05.422Z,100550.47
2022-12-25T05:07:09.918Z,100555.44
2022-12-25T05:09:14.441Z,100556.44
2022-12-25T05:11:18.928Z,100558.05
2022-12-25T05:13:23.403Z,100563.42
2022-12-25T05:15:27.840Z,100566.95
2022-12-25T05:17:32.234Z,100566.09
2022-12-25T05:19:36.638Z,100574.38
2022-12-25T05:21:41.099Z,100579
2022-12-25T05:23:45.507Z,100582.19
2022-12-25T05:25:49.962Z,100592.91
2022-12-25T05:27:55.141Z,100591.19
2022-12-25T05:29:59.516Z,100585.09
2022-12-25T05:32:03.907Z,100579.91
2022-12-25T05:34:08.408Z,100584.53
2022-12-25T05:36:12.797Z,100586.92
2022-12-25T05:38:17.196Z,100583.59
2022-12-25T05:40:21.544Z,100586.55
2022-12-25T05:42:26.017Z,100587.23
2022-12-25T05:44:30.434Z,100585.66
2022-12-25T05:46:34.939Z,100588.37
2022-12-25T05:48:39.411Z,100591.41
2022-12-25T05:50:43.818Z,100590.16
2022-12-25T05:52:48.211Z,100587
2022-12-25T05:54:52.615Z,100599.7
2022-12-25T05:56:57.015Z,100601.03
2022-12-25T05:59:01.471Z,100593.13
2022-12-25T06:01:05.958Z,100595.27
2022-12-25T06:03:10.725Z,100595.59
2022-12-25T06:05:15.291Z,100598.41
2022-12-25T06:07:19.660Z,100599.03
2022-12-25T06:09:24.098Z,100601.56
2022-12-25T06:11:28.488Z,100609.07
2022-12-25T06:13:32.918Z,100615.73
2022-12-25T06:15:37.288Z,100622.33
2022-12-25T06:17:41.767Z,100639.64
2022-12-25T06:19:46.179Z,100636.88
2022-12-25T06:21:50.594Z,100633.09
2022-12-25T06:23:55.126Z,100625.66
2022-12-25T06:25:59.705Z,100634.01
2022-12-25T06:28:04.245Z,100636.95
2022-12-25T06:30:08.621Z,100641.64
2022-12-25T06:32:13.027Z,100657.7
2022-12-25T06:34:17.418Z,100655.08
2022-12-25T06:36:21.861Z,100654.87
2022-12-25T06:38:26.321Z,100663.46
2022-12-25T06:40:30.724Z,100667.46
2022-12-25T06:42:35.148Z,100666.13
2022-12-25T06:44:39.565Z,100666.64
2022-12-25T06:46:44.146Z,100664.77
2022-12-25T06:48:48.714Z,100670.65
2022-12-25T06:50:53.617Z,100671.66
2022-12-25T06:52:58.905Z,100670.06
2022-12-25T06:55:04.118Z,100671.3
2022-12-25T06:57:08.567Z,100664.03
2022-12-25T06:59:13.159Z,100661.47
2022-12-25T07:01:17.744Z,100672.28
2022-12-25T07:03:22.664Z,100674.02
2022-12-25T07:05:27.203Z,100677.34
2022-12-25T07:07:31.639Z,100675.95
2022-12-25T07:09:36.133Z,100673.1
2022-12-25T07:11:40.682Z,100670.13
2022-12-25T07:13:45.105Z,100671.13
2022-12-25T07:15:49.476Z,100675.02
2022-12-25T07:17:53.876Z,100677.28
2022-12-25T07:19:58.243Z,100675.48
2022-12-25T07:22:02.659Z,100675.34
2022-12-25T07:24:07.117Z,100673.35
2022-12-25T07:26:11.611Z,100677.83
2022-12-25T07:28:16.054Z,100679.24
2022-12-25T07:30:20.537Z,100686.03
2022-12-25T07:32:24.897Z,100685.52
2022-12-25T07:34:29.381Z,100692.62
2022-12-25T07:36:33.760Z,100694.59
2022-12-25T07:38:38.170Z,100690.22
2022-12-25T07:40:42.564Z,100686.33
2022-12-25T07:42:46.925Z,100690.77
2022-12-25T07:44:51.364Z,100688.93
2022-12-25T07:46:55.760Z,100680.06
2022-12-25T07:49:00.173Z,100675.27
2022-12-25T07:51:04.591Z,100679.34
2022-12-25T07:53:09.128Z,100685.31
2022-12-25T07:55:13.536Z,100689.34
2022-12-25T07:57:17.963Z,100683.63
2022-12-25T07:59:22.417Z,100684.38
2022-12-25T08:01:27.334Z,100691.64
2022-12-25T08:03:32.717Z,100686.33
2022-12-25T08:05:37.708Z,100688.16
2022-12-25T08:07:42.146Z,100687.3
2022-12-25T08:09:46.555Z,100692.13
2022-12-25T08:11:51.048Z,100694.88
2022-12-25T08:13:55.556Z,100695.84
2022-12-25T08:16:00.033Z,100697.92
2022-12-25T08:18:04.511Z,100691.69
2022-12-25T08:20:08.910Z,100691.73
2022-12-25T08:22:13.400Z,100691.23
2022-12-25T08:24:17.771Z,100700.16
2022-12-25T08:26:22.236Z,100701.66
2022-12-25T08:28:26.672Z,100700.33
2022-12-25T08:30:31.384Z,100705.45
2022-12-25T08:32:35.895Z,100711.69
2022-12-25T08:34:40.269Z,100713.16
2022-12-25T08:36:44.696Z,100710.95
2022-12-25T08:38:49.179Z,100715.48
2022-12-25T08:40:53.667Z,100721.05
2022-12-25T08:42:58.069Z,100716.55
2022-12-25T08:45:02.499Z,100721.39
2022-12-25T08:47:06.877Z,100720.77
2022-12-25T08:49:11.441Z,100721.84
2022-12-25T08:51:15.880Z,100724.16
2022-12-25T08:53:20.516Z,100680.81
2022-12-25T08:55:24.932Z,100723.84
2022-12-25T08:57:29.360Z,100731.37
2022-12-25T08:59:33.778Z,100737.38
2022-12-25T09:01:38.440Z,100728.16
2022-12-25T09:03:43.480Z,100734.34
2022-12-25T09:05:48.202Z,100732.16
2022-12-25T09:07:52.629Z,100729.88
2022-12-25T09:09:57.036Z,100732.91
2022-12-25T09:12:01.563Z,100735.25
2022-12-25T09:14:06.002Z,100743.92
2022-12-25T09:16:10.640Z,100739.77
2022-12-25T09:18:15.097Z,100740.89
2022-12-25T09:20:19.483Z,100742.22
2022-12-25T09:22:23.905Z,100746.63
2022-12-25T09:24:28.271Z,100737.2
2022-12-25T09:26:32.686Z,100738.63
2022-12-25T09:28:37.056Z,100744.23
2022-12-25T09:30:41.589Z,100743.23
2022-12-25T09:32:46.141Z,100741.13
2022-12-25T09:34:50.531Z,100738.81
2022-12-25T09:36:55.515Z,100729.84
2022-12-25T09:38:59.901Z,100729.95
2022-12-25T09:41:04.417Z,100727.89
2022-12-25T09:43:08.833Z,100723.25
2022-12-25T09:45:13.266Z,100724.44
2022-12-25T09:47:17.658Z,100725.77
2022-12-25T09:49:22.091Z,100717.02
2022-12-25T09:51:26.474Z,100724.27
2022-12-25T09:53:30.902Z,100730.57
2022-12-25T09:55:35.315Z,100730.05
2022-12-25T09:57:39.713Z,100725.66
2022-12-25T09:59:44.164Z,100724.88
2022-12-25T10:01:48.815Z,100734.42
2022-12-25T10:03:53.634Z,100732.38
2022-12-25T10:05:58.173Z,100730.98
2022-12-25T10:08:02.649Z,100719.98
2022-12-25T10:10:07.136Z,100719.5
2022-12-25T10:12:12.722Z,100717.16
2022-12-25T10:14:17.119Z,100715.52
2022-12-25T10:16:21.747Z,100720.97
2022-12-25T10:18:26.245Z,100717.27
2022-12-25T10:20:30.667Z,100714.09
2022-12-25T10:22:35.183Z,100714.41
2022-12-25T10:24:39.642Z,100711.5
2022-12-25T10:26:44.057Z,100713.52
2022-12-25T10:28:48.477Z,100706.4
2022-12-25T10:30:53.001Z,100703.19
2022-12-25T10:32:57.628Z,100698.34
2022-12-25T10:35:02.033Z,100693.94
2022-12-25T10:37:06.445Z,100693.97
2022-12-25T10:39:10.844Z,100684.12
2022-12-25T10:41:15.295Z,100686.27
2022-12-25T10:43:19.696Z,100689.7
2022-12-25T10:45:24.217Z,100688.09
2022-12-25T10:47:28.615Z,100686.26
2022-12-25T10:49:33.139Z,100683.39
2022-12-25T10:51:37.690Z,100672.17
2022-12-25T10:53:42.123Z,100671.11
2022-12-25T10:55:46.556Z,100670.12
2022-12-25T10:57:50.971Z,100669.13
2022-12-25T10:59:55.344Z,100666.73
2022-12-25T11:02:00.082Z,100670.97
2022-12-25T11:04:05.037Z,100659.58
2022-12-25T11:06:09.620Z,100652.94
2022-12-25T11:08:14.503Z,100650.69
2022-12-25T11:10:18.937Z,100646.25
2022-12-25T11:12:23.380Z,100646.09
2022-12-25T11:14:27.817Z,100648.72
2022-12-25T11:16:32.470Z,100645.48
2022-12-25T11:18:37.032Z,100637.5
2022-12-25T11:20:48.009Z,100633.17
2022-12-25T11:22:52.481Z,100630.15
2022-12-25T11:24:56.952Z,100631.91
2022-12-25T11:27:01.387Z,100630.28
2022-12-25T11:29:05.878Z,100638.02
2022-12-25T11:31:10.465Z,100643.7
2022-12-25T11:33:14.919Z,100643.41
2022-12-25T11:35:19.339Z,100639.06
2022-12-25T11:37:23.856Z,100637.91
2022-12-25T11:39:28.267Z,100637.49
2022-12-25T11:41:32.718Z,100637.16
2022-12-25T11:43:37.317Z,100633.34
2022-12-25T11:45:41.731Z,100625.11
2022-12-25T11:47:46.121Z,100626.75
2022-12-25T11:49:54.944Z,100626.14
2022-12-25T11:52:04.522Z,100623.94
2022-12-25T11:54:08.921Z,100621.86
2022-12-25T11:56:13.359Z,100624.7
2022-12-25T11:58:17.721Z,100622.16
2022-12-25T12:00:22.102Z,100616.48
2022-12-25T12:02:26.941Z,100617.37
2022-12-25T12:04:42.513Z,100616.93
2022-12-25T12:06:47.378Z,100612.97
2022-12-25T12:08:51.791Z,100616.2
2022-12-25T12:10:56.204Z,100611.91
2022-12-25T12:13:00.618Z,100604.89
2022-12-25T12:15:05.011Z,100608.71
2022-12-25T12:17:09.496Z,100604.63
2022-12-25T12:19:14.021Z,100605.66
2022-12-25T12:21:18.436Z,100606.02
2022-12-25T12:23:22.875Z,100612.27
2022-12-25T12:25:27.387Z,100611.34
2022-12-25T12:27:31.783Z,100611.78
2022-12-25T12:29:36.191Z,100604.99
2022-12-25T12:31:40.759Z,100605.36
2022-12-25T12:33:45.347Z,100595.67
2022-12-25T12:35:49.761Z,100590.28
2022-12-25T12:37:54.180Z,100590.2
2022-12-25T12:39:58.604Z,100595.67
2022-12-25T12:42:03.047Z,100598.42
2022-12-25T12:44:07.453Z,100600.09
2022-12-25T12:46:12.042Z,100600.03
2022-12-25T12:48:16.721Z,100564.82
2022-12-25T12:50:21.241Z,100600.77
2022-12-25T12:52:25.690Z,100602.97
2022-12-25T12:54:30.174Z,100603.46
2022-12-25T12:56:34.544Z,100605.2
2022-12-25T12:58:38.971Z,100569.94
2022-12-25T13:00:43.566Z,100600.83
2022-12-25T13:02:48.843Z,100589.19
2022-12-25T13:04:53.495Z,100585.48
2022-12-25T13:06:57.975Z,100580.89
2022-12-25T13:09:02.493Z,100580.38
2022-12-25T13:11:06.867Z,100582.18
2022-12-25T13:13:11.290Z,100576.88
2022-12-25T13:15:15.783Z,100582.11
2022-12-25T13:17:20.266Z,100587.78
2022-12-25T13:19:24.752Z,100586.82
2022-12-25T13:21:29.319Z,100586.97
2022-12-25T13:23:33.802Z,100576.43
2022-12-25T13:25:38.396Z,100577.45
2022-12-25T13:27:42.775Z,100580.32
2022-12-25T13:29:47.266Z,100576.49
2022-12-25T13:31:51.768Z,100582.09
2022-12-25T13:33:56.411Z,100582.97
2022-12-25T13:36:00.869Z,100575.56
2022-12-25T13:38:05.305Z,100577.1
2022-12-25T13:40:09.846Z,100569.4
2022-12-25T13:42:14.255Z,100563.31
2022-12-25T13:44:18.645Z,100558.19
2022-12-25T13:46:23.222Z,100543.84
2022-12-25T13:48:27.726Z,100547.44
2022-12-25T13:50:32.249Z,100538.83
2022-12-25T13:52:36.831Z,100540.59
2022-12-25T13:54:41.200Z,100536.43
2022-12-25T13:56:45.646Z,100524.64
2022-12-25T13:58:50.025Z,100522.81
2022-12-25T14:00:54.602Z,100532.55
2022-12-25T14:02:59.697Z,100539.63
2022-12-25T14:05:04.403Z,100548.25
2022-12-25T14:07:08.870Z,100549.67
2022-12-25T14:09:13.273Z,100558.72
2022-12-25T14:11:17.666Z,100564.13
2022-12-25T14:13:22.281Z,100554.06
2022-12-25T14:15:26.796Z,100505.19
2022-12-25T14:17:31.263Z,100550.54
2022-12-25T14:19:35.827Z,100548.96
2022-12-25T14:21:40.285Z,100549.68
2022-12-25T14:23:44.770Z,100541.56
2022-12-25T14:25:49.427Z,100503.16
2022-12-25T14:27:53.969Z,100519.58
2022-12-25T14:29:58.376Z,100553.39
2022-12-25T14:32:02.747Z,100561.22
2022-12-25T14:34:07.145Z,100554.33
2022-12-25T14:36:11.533Z,100548.21
2022-12-25T14:38:15.895Z,100564.09
2022-12-25T14:40:20.314Z,100558.8
2022-12-25T14:42:24.721Z,100555.01
2022-12-25T14:44:29.256Z,100551.1
2022-12-25T14:46:33.943Z,100552.63
2022-12-25T14:48:38.524Z,100545.73
2022-12-25T14:50:43.003Z,100540.44
2022-12-25T14:52:47.461Z,100540.58
2022-12-25T14:54:51.843Z,100536.96
2022-12-25T14:56:56.395Z,100538.45
2022-12-25T14:59:00.873Z,100537.11
2022-12-25T15:01:05.609Z,100530.3
2022-12-25T15:03:10.511Z,100536.25
2022-12-25T15:05:15.275Z,100531.84
2022-12-25T15:07:19.624Z,100537.12
2022-12-25T15:09:24.077Z,100537.66
2022-12-25T15:11:28.526Z,100543.09
2022-12-25T15:13:33.229Z,100543.3
2022-12-25T15:15:37.966Z,100538.75
2022-12-25T15:17:42.486Z,100529.8
2022-12-25T15:19:47.098Z,100521.23
2022-12-25T15:21:51.512Z,100518.4
2022-12-25T15:23:55.976Z,100524.13
2022-12-25T15:26:00.446Z,100536.88
2022-12-25T15:28:13.083Z,100532.98
2022-12-25T15:30:17.715Z,100532.3
2022-12-25T15:32:22.143Z,100533.92
2022-12-25T15:34:26.599Z,100519.96
2022-12-25T15:36:31.010Z,100523
2022-12-25T15:38:35.484Z,100515.61
2022-12-25T15:40:40.018Z,100508.28
2022-12-25T15:42:46.112Z,100511.22
2022-12-25T15:44:50.532Z,100511.13
2022-12-25T15:46:55.140Z,100507.97
2022-12-25T15:48:59.600Z,100516
2022-12-25T15:51:04.032Z,100507.91
2022-12-25T15:53:08.410Z,100512.76
2022-12-25T15:55:12.818Z,100521.31
2022-12-25T15:57:17.232Z,100519.93
2022-12-25T15:59:21.657Z,100523.85
2022-12-25T16:01:26.288Z,100522.14
2022-12-25T16:03:31.004Z,100510.98
2022-12-25T16:05:35.617Z,100510.82
2022-12-25T16:07:40.102Z,100503.91
2022-12-25T16:09:44.552Z,100502.55
2022-12-25T16:11:48.958Z,100492.86
2022-12-25T16:13:53.359Z,100486.7
2022-12-25T16:15:58.693Z,100496.81
2022-12-25T16:18:03.264Z,100491.38
2022-12-25T16:20:07.716Z,100480.3
2022-12-25T16:22:12.141Z,100464.36
2022-12-25T16:24:16.557Z,100463.05
2022-12-25T16:26:20.977Z,100471.67
2022-12-25T16:28:25.388Z,100467.21
2022-12-25T16:30:29.760Z,100453.84
2022-12-25T16:32:34.279Z,100443.56
2022-12-25T16:34:38.685Z,100439.92
2022-12-25T16:36:44.316Z,100437
2022-12-25T16:38:48.952Z,100443.52
2022-12-25T16:40:53.376Z,100441.81
2022-12-25T16:42:57.927Z,100437.52
2022-12-25T16:45:02.375Z,100441.13
2022-12-25T16:47:06.890Z,100441.55
2022-12-25T16:49:11.309Z,100435.73
2022-12-25T16:51:15.752Z,100436.81
2022-12-25T16:53:20.190Z,100436.24
2022-12-25T16:55:30.765Z,100435.75
2022-12-25T16:57:35.273Z,100440.52
2022-12-25T16:59:39.702Z,100444.01
2022-12-25T17:01:44.766Z,100447.53
2022-12-25T17:03:49.541Z,100440.55
2022-12-25T17:05:54.120Z,100451.38
2022-12-25T17:07:58.517Z,100457.01
2022-12-25T17:10:03.022Z,100457.86
2022-12-25T17:12:07.505Z,100449.02
2022-12-25T17:14:12.034Z,100418.55
2022-12-25T17:16:16.650Z,100433.43
2022-12-25T17:18:21.150Z,100427.61
2022-12-25T17:20:25.720Z,100414.81
2022-12-25T17:22:30.160Z,100410.83
2022-12-25T17:24:34.580Z,100406.69
2022-12-25T17:26:39.114Z,100405.46
2022-12-25T17:28:43.528Z,100401.15
2022-12-25T17:30:47.946Z,100407.61
2022-12-25T17:32:52.386Z,100409.45
2022-12-25T17:34:56.893Z,100411.95
2022-12-25T17:37:01.341Z,100410.02
2022-12-25T17:39:05.753Z,100420.32
2022-12-25T17:41:10.172Z,100421.54
2022-12-25T17:43:21.673Z,100414.98
2022-12-25T17:45:26.206Z,100413.84
2022-12-25T17:47:30.586Z,100412.43
2022-12-25T17:49:35.038Z,100407.8
2022-12-25T17:51:39.540Z,100405.64
2022-12-25T17:53:43.982Z,100406.06
2022-12-25T17:55:48.372Z,100403.76
2022-12-25T17:57:52.779Z,100400.59
2022-12-25T17:59:57.373Z,100395
2022-12-25T18:02:02.148Z,100393.55
2022-12-25T18:04:07.439Z,100393.31
2022-12-25T18:06:12.048Z,100391.86
2022-12-25T18:08:16.470Z,100385.16
2022-12-25T18:10:21.013Z,100383.63
2022-12-25T18:12:25.460Z,100373.5
2022-12-25T18:14:29.929Z,100370.28
2022-12-25T18:16:34.531Z,100365.38
2022-12-25T18:18:39.220Z,100354.78
2022-12-25T18:20:43.721Z,100355.2
2022-12-25T18:22:48.200Z,100351.34
2022-12-25T18:24:52.663Z,100346.85
2022-12-25T18:26:57.127Z,100345.06
2022-12-25T18:29:01.633Z,100342.94
2022-12-25T18:31:06.141Z,100332.38
2022-12-25T18:33:11.464Z,100333.23
2022-12-25T18:35:15.913Z,100317.63
2022-12-25T18:37:20.314Z,100321.41
2022-12-25T18:39:24.757Z,100326.98
2022-12-25T18:41:29.230Z,100332.03
2022-12-25T18:43:56.089Z,100330.97
2022-12-25T18:46:00.884Z,100319.81
2022-12-25T18:48:05.395Z,100312.91
2022-12-25T18:50:09.915Z,100317.97
2022-12-25T18:52:52.100Z,100316.75
2022-12-25T18:54:56.627Z,100317.02
2022-12-25T18:57:07.978Z,100307.55
2022-12-25T18:59:12.487Z,100277.82
2022-12-25T19:01:17.362Z,100282.33
2022-12-25T19:03:22.417Z,100311.69
2022-12-25T19:05:26.987Z,100301.02
2022-12-25T19:07:31.461Z,100302.41
2022-12-25T19:09:35.930Z,100297.14
2022-12-25T19:11:47.247Z,100294.88
2022-12-25T19:13:51.668Z,100296.56
2022-12-25T19:15:56.340Z,100298.17
2022-12-25T19:18:00.857Z,100291.33
2022-12-25T19:20:05.241Z,100294.39
2022-12-25T19:22:09.634Z,100290.03
2022-12-25T19:24:14.064Z,100285.79
2022-12-25T19:26:18.445Z,100285.15
2022-12-25T19:28:22.921Z,100228.17
2022-12-25T19:30:27.300Z,100278.44
2022-12-25T19:32:31.766Z,100277.59
2022-12-25T19:34:36.209Z,100269.37
2022-12-25T19:36:40.593Z,100261.27
2022-12-25T19:38:45.135Z,100268.31
2022-12-25T19:40:49.611Z,100270.45
2022-12-25T19:42:54.020Z,100266.65
2022-12-25T19:44:58.491Z,100265.28
2022-12-25T19:47:02.849Z,100254.58
2022-12-25T19:49:07.359Z,100254.43
2022-12-25T19:51:11.741Z,100254.05
2022-12-25T19:53:16.122Z,100240.09
2022-12-25T19:55:20.660Z,100244.08
2022-12-25T19:57:24.979Z,100246.94
2022-12-25T19:59:29.349Z,100242.88
2022-12-25T20:01:33.965Z,100236.27
2022-12-25T20:03:46.724Z,100231.15
2022-12-25T20:05:51.241Z,100226.88
2022-12-25T20:07:55.717Z,100218.3
2022-12-25T20:10:00.112Z,100208.08
2022-12-25T20:12:04.674Z,100196.52
2022-12-25T20:14:09.069Z,100191.64
2022-12-25T20:16:13.638Z,100194.36
2022-12-25T20:18:18.106Z,100203.36
2022-12-25T20:20:22.516Z,100196.92
2022-12-25T20:22:26.968Z,100205.16
2022-12-25T20:24:31.450Z,100211.01
2022-12-25T20:26:35.857Z,100209.63
2022-12-25T20:28:40.387Z,100224.8
2022-12-25T20:30:44.785Z,100216.66
2022-12-25T20:32:51.781Z,100216.13
2022-12-25T20:34:56.295Z,100216.77
2022-12-25T20:37:00.775Z,100199.6
2022-12-25T20:39:05.290Z,100205.75
2022-12-25T20:41:39.875Z,100194.83
2022-12-25T20:43:46.762Z,100194.91
2022-12-25T20:45:51.368Z,100182
2022-12-25T20:47:55.926Z,100166.55
2022-12-25T20:50:00.285Z,100162.45
2022-12-25T20:52:06.972Z,100173.59
2022-12-25T20:54:11.333Z,100175.34
2022-12-25T20:56:15.764Z,100176.05
2022-12-25T20:58:20.174Z,100179.16
2022-12-25T21:00:24.567Z,100167.34
2022-12-25T21:02:36.871Z,100175.1
2022-12-25T21:04:41.740Z,100168.43
2022-12-25T21:06:46.175Z,100165.41
2022-12-25T21:08:50.712Z,100165.27
2022-12-25T21:10:55.152Z,100164.49
2022-12-25T21:12:59.609Z,100156.48
2022-12-25T21:15:04.150Z,100143.16
2022-12-25T21:17:15.349Z,100137.02
2022-12-25T21:19:19.998Z,100140.55
2022-12-25T21:21:24.513Z,100140.33
2022-12-25T21:23:29.006Z,100130.88
2022-12-25T21:25:33.484Z,100126.35
2022-12-25T21:27:37.890Z,100124.69
2022-12-25T21:29:42.425Z,100118.38
2022-12-25T21:31:46.928Z,100119.09
2022-12-25T21:33:51.350Z,100131.23
2022-12-25T21:35:56.162Z,100122.94
2022-12-25T21:38:00.589Z,100121.05
2022-12-25T21:40:05.275Z,100112.15
2022-12-25T21:42:16.285Z,100111.22
2022-12-25T21:44:20.871Z,100119.63
2022-12-25T21:46:25.546Z,100120.55
2022-12-25T21:48:30.266Z,100127.38
2022-12-25T21:50:40.216Z,100131.28
2022-12-25T21:52:44.731Z,100138.52
2022-12-25T21:54:49.126Z,100151.3
2022-12-25T21:56:53.752Z,100154.42
2022-12-25T21:58:58.179Z,100155.31
2022-12-25T22:01:02.737Z,100152.77
2022-12-25T22:03:07.794Z,100158.41
2022-12-25T22:05:12.490Z,100148.81
2022-12-25T22:07:16.923Z,100141.83
2022-12-25T22:09:21.426Z,100135.69
2022-12-25T22:11:25.830Z,100131.42
2022-12-25T22:13:30.402Z,100125.16
2022-12-25T22:15:35.196Z,100116.16
2022-12-25T22:17:39.645Z,100119.39
2022-12-25T22:19:44.055Z,100122.66
2022-12-25T22:21:48.526Z,100126.77
2022-12-25T22:23:52.998Z,100119.08
2022-12-25T22:25:57.426Z,100124.34
2022-12-25T22:28:01.853Z,100117.28
2022-12-25T22:30:06.249Z,100111.89
2022-12-25T22:32:10.669Z,100109.17
2022-12-25T22:34:15.176Z,100114.06
2022-12-25T22:36:19.611Z,100112.7
2022-12-25T22:38:24.017Z,100107.62
2022-12-25T22:40:28.469Z,100090.44
2022-12-25T22:42:32.968Z,100081.41
2022-12-25T22:44:37.471Z,100077.61
2022-12-25T22:46:42.084Z,100076.55
2022-12-25T22:48:46.660Z,100073.41
2022-12-25T22:50:51.119Z,100074.19
2022-12-25T22:52:55.606Z,100072.69
2022-12-25T22:55:00.053Z,100063.06
2022-12-25T22:57:04.790Z,100052.73
2022-12-25T22:59:09.180Z,100045.27
2022-12-25T23:01:13.559Z,100048.98
2022-12-25T23:03:18.304Z,100036.92
2022-12-25T23:05:22.985Z,100027.78
2022-12-25T23:07:27.434Z,100040.75
2022-12-25T23:09:31.847Z,100053.38
2022-12-25T23:11:36.276Z,100063.5
2022-12-25T23:13:40.665Z,100071.13
2022-12-25T23:15:45.192Z,100086.27
2022-12-25T23:17:49.785Z,100079.77
2022-12-25T23:19:54.162Z,100072.42
2022-12-25T23:21:58.539Z,100062.3
2022-12-25T23:24:02.976Z,100056.18
2022-12-25T23:26:07.535Z,100054.33
2022-12-25T23:28:12.847Z,100052.06
2022-12-25T23:30:17.295Z,100053.02
2022-12-25T23:32:21.660Z,100042.74
2022-12-25T23:34:26.111Z,100041.9
2022-12-25T23:36:30.602Z,100032.36
2022-12-25T23:38:35.035Z,100033.17
2022-12-25T23:40:39.512Z,100044.98
2022-12-25T23:42:43.966Z,100041.79
2022-12-25T23:44:48.367Z,100048.11
2022-12-25T23:46:54.293Z,100057.02
2022-12-25T23:48:58.955Z,100061.41
2022-12-25T23:51:03.419Z,100054.98